createdAt,value
2024-02-28T00:02:03.105Z,2.70
2024-02-28T00:04:29.989Z,2.75
2024-02-28T00:06:57.020Z,2.58
2024-02-28T00:09:24.022Z,2.90
2024-02-28T00:11:50.876Z,2.20
2024-02-28T00:14:17.737Z,2.47
2024-02-28T00:16:45.149Z,2.38
2024-02-28T00:19:13.469Z,2.30
2024-02-28T00:21:41.081Z,2.67
2024-02-28T00:24:08.666Z,1.80
2024-02-28T00:26:35.474Z,2.65
2024-02-28T00:29:02.363Z,2.30
2024-02-28T00:31:29.257Z,2.03
2024-02-28T00:33:56.150Z,2.10
2024-02-28T00:36:22.991Z,2.03
2024-02-28T00:38:49.946Z,1.90
2024-02-28T00:41:16.797Z,2.20
2024-02-28T00:43:43.690Z,1.88
2024-02-28T00:46:13.670Z,2.00
2024-02-28T00:48:41.053Z,1.70
2024-02-28T00:51:09.488Z,2.40
2024-02-28T00:53:36.534Z,1.92
2024-02-28T00:56:04.463Z,1.92
2024-02-28T00:58:31.486Z,1.70
2024-02-28T01:00:58.852Z,2.00
2024-02-28T01:03:26.063Z,1.63
2024-02-28T01:05:53.095Z,1.73
2024-02-28T01:08:20.017Z,1.73
2024-02-28T01:10:47.314Z,2.20
2024-02-28T01:13:14.711Z,1.58
2024-02-28T01:15:43.042Z,2.00
2024-02-28T01:18:10.683Z,2.00
2024-02-28T01:20:37.772Z,1.95
2024-02-28T01:23:04.758Z,2.30
2024-02-28T01:25:31.623Z,1.83
2024-02-28T01:28:01.211Z,1.75
2024-02-28T01:30:28.139Z,1.67
2024-02-28T01:32:55.178Z,1.70
2024-02-28T01:35:22.177Z,2.03
2024-02-28T01:37:49.036Z,2.33
2024-02-28T01:40:15.938Z,1.55
2024-02-28T01:42:42.868Z,1.90
2024-02-28T01:45:13.975Z,1.95
2024-02-28T01:47:41.880Z,1.55
2024-02-28T01:50:08.827Z,1.42
2024-02-28T01:52:36.270Z,1.75
2024-02-28T01:55:03.196Z,2.33
2024-02-28T01:57:30.446Z,1.63
2024-02-28T01:59:57.867Z,1.50
2024-02-28T02:02:24.709Z,1.55
2024-02-28T02:04:54.142Z,2.40
2024-02-28T02:07:21.135Z,1.60
2024-02-28T02:09:47.989Z,1.65
2024-02-28T02:12:14.857Z,1.70
2024-02-28T02:14:41.703Z,1.58
2024-02-28T02:17:08.555Z,1.95
2024-02-28T02:19:35.710Z,1.48
2024-02-28T02:22:04.428Z,1.67
2024-02-28T02:24:31.241Z,1.60
2024-02-28T02:27:01.077Z,1.63
2024-02-28T02:29:29.723Z,1.90
2024-02-28T02:31:56.640Z,2.10
2024-02-28T02:34:23.504Z,1.75
2024-02-28T02:36:50.447Z,1.80
2024-02-28T02:39:17.365Z,1.85
2024-02-28T02:41:44.364Z,2.08
2024-02-28T02:44:11.274Z,1.98
2024-02-28T02:46:38.147Z,2.10
2024-02-28T02:49:05.030Z,2.05
2024-02-28T02:51:31.934Z,2.10
2024-02-28T02:53:58.896Z,1.83
2024-02-28T02:56:25.763Z,1.88
2024-02-28T02:58:52.625Z,1.77
2024-02-28T03:01:21.433Z,1.75
2024-02-28T03:03:48.568Z,1.73
2024-02-28T03:06:15.728Z,2.22
2024-02-28T03:08:42.527Z,1.90
2024-02-28T03:11:09.960Z,2.00
2024-02-28T03:13:36.874Z,2.03
2024-02-28T03:16:06.716Z,2.00
2024-02-28T03:18:33.613Z,1.58
2024-02-28T03:21:00.453Z,2.15
2024-02-28T03:23:27.350Z,1.77
2024-02-28T03:25:54.332Z,1.80
2024-02-28T03:28:21.136Z,1.65
2024-02-28T03:30:47.980Z,2.45
2024-02-28T03:33:14.840Z,1.80
2024-02-28T03:35:41.680Z,2.08
2024-02-28T03:38:08.541Z,1.88
2024-02-28T03:40:35.436Z,2.20
2024-02-28T03:43:02.356Z,1.90
2024-02-28T03:45:30.802Z,1.95
2024-02-28T03:47:57.759Z,2.47
2024-02-28T03:50:24.638Z,2.50
2024-02-28T03:52:51.538Z,2.63
2024-02-28T03:55:18.404Z,2.90
2024-02-28T03:57:48.610Z,2.38
2024-02-28T04:00:15.830Z,2.38
2024-02-28T04:02:42.732Z,2.33
2024-02-28T04:05:09.686Z,2.20
2024-02-28T04:07:36.685Z,2.20
2024-02-28T04:10:06.449Z,2.90
2024-02-28T04:12:34.252Z,1.92
2024-02-28T04:15:01.221Z,2.10
2024-02-28T04:17:28.111Z,2.20
2024-02-28T04:19:54.949Z,2.30
2024-02-28T04:22:21.780Z,2.58
2024-02-28T04:24:48.597Z,2.45
2024-02-28T04:27:15.583Z,2.15
2024-02-28T04:29:42.633Z,2.50
2024-02-28T04:32:09.452Z,2.55
2024-02-28T04:34:37.311Z,2.08
2024-02-28T04:37:04.218Z,1.90
2024-02-28T04:39:31.094Z,2.10
2024-02-28T04:41:57.951Z,2.00
2024-02-28T04:44:24.777Z,2.45
2024-02-28T04:46:51.680Z,2.38
2024-02-28T04:49:18.573Z,2.85
2024-02-28T04:51:45.553Z,2.58
2024-02-28T04:54:12.430Z,2.30
2024-02-28T04:56:42.576Z,2.28
2024-02-28T04:59:10.030Z,2.85
2024-02-28T05:01:40.245Z,2.65
2024-02-28T05:04:08.077Z,2.95
2024-02-28T05:06:36.574Z,2.30
2024-02-28T05:09:04.595Z,2.60
2024-02-28T05:11:31.486Z,2.65
2024-02-28T05:13:58.339Z,2.78
2024-02-28T05:16:25.183Z,2.15
2024-02-28T05:18:52.054Z,2.63
2024-02-28T05:21:18.999Z,2.40
2024-02-28T05:23:45.854Z,2.53
2024-02-28T05:26:12.741Z,2.15
2024-02-28T05:28:40.137Z,2.35
2024-02-28T05:31:21.439Z,2.22
2024-02-28T05:33:48.429Z,2.10
2024-02-28T05:36:15.343Z,2.65
2024-02-28T05:38:42.245Z,2.17
2024-02-28T05:41:09.063Z,2.70
2024-02-28T05:43:37.279Z,2.25
2024-02-28T05:46:04.482Z,2.15
2024-02-28T05:48:31.387Z,2.30
2024-02-28T05:50:58.232Z,2.15
2024-02-28T05:53:28.135Z,2.53
2024-02-28T05:55:55.208Z,2.03
2024-02-28T05:58:22.015Z,2.00
2024-02-28T06:00:48.977Z,1.98
2024-02-28T06:03:16.092Z,1.95
2024-02-28T06:05:43.823Z,1.70
2024-02-28T06:08:10.802Z,1.70
2024-02-28T06:10:37.647Z,1.83
2024-02-28T06:13:04.830Z,1.85
2024-02-28T06:15:32.170Z,1.83
2024-02-28T06:18:01.644Z,1.60
2024-02-28T06:20:29.209Z,2.10
2024-02-28T06:22:56.390Z,1.75
2024-02-28T06:25:25.026Z,1.85
2024-02-28T06:27:52.067Z,2.10
2024-02-28T06:30:19.227Z,2.10
2024-02-28T06:32:46.230Z,2.03
2024-02-28T06:35:13.131Z,2.20
2024-02-28T06:37:39.936Z,1.85
2024-02-28T06:40:07.209Z,1.58
2024-02-28T06:42:34.200Z,1.50
2024-02-28T06:45:01.057Z,2.05
2024-02-28T06:47:28.016Z,1.67
2024-02-28T06:49:54.915Z,1.92
2024-02-28T06:52:21.812Z,1.98
2024-02-28T06:54:48.740Z,1.90
2024-02-28T06:57:15.617Z,1.95
2024-02-28T06:59:42.483Z,1.70
2024-02-28T07:02:09.445Z,1.88
2024-02-28T07:04:36.349Z,1.83
2024-02-28T07:07:03.249Z,1.83
2024-02-28T07:09:32.586Z,1.67
2024-02-28T07:11:59.904Z,1.55
2024-02-28T07:14:26.756Z,1.63
2024-02-28T07:16:54.449Z,1.58
2024-02-28T07:19:21.718Z,2.28
2024-02-28T07:21:48.661Z,1.88
2024-02-28T07:24:15.652Z,1.55
2024-02-28T07:26:43.101Z,1.83
2024-02-28T07:29:10.009Z,1.85
2024-02-28T07:31:36.936Z,2.13
2024-02-28T07:34:04.002Z,2.00
2024-02-28T07:36:31.071Z,1.80
2024-02-28T07:38:58.190Z,1.83
2024-02-28T07:41:25.044Z,1.35
2024-02-28T07:43:51.981Z,2.08
2024-02-28T07:46:18.846Z,1.63
2024-02-28T07:48:45.747Z,1.63
2024-02-28T07:51:12.891Z,1.90
2024-02-28T07:53:39.753Z,2.08
2024-02-28T07:56:07.051Z,1.75
2024-02-28T07:58:34.335Z,2.00
2024-02-28T08:01:01.314Z,1.98
2024-02-28T08:03:28.329Z,1.75
2024-02-28T08:05:55.188Z,1.95
2024-02-28T08:08:22.046Z,1.80
2024-02-28T08:10:50.282Z,2.00
2024-02-28T08:13:17.338Z,2.40
2024-02-28T08:15:44.282Z,1.70
2024-02-28T08:18:12.534Z,1.90
2024-02-28T08:20:39.501Z,2.25
2024-02-28T08:23:06.863Z,2.17
2024-02-28T08:25:33.897Z,1.80
2024-02-28T08:28:00.786Z,1.75
2024-02-28T08:30:27.788Z,1.95
2024-02-28T08:32:54.712Z,1.70
2024-02-28T08:35:21.748Z,2.28
2024-02-28T08:37:48.595Z,2.00
2024-02-28T08:40:15.664Z,1.80
2024-02-28T08:42:43.132Z,2.10
2024-02-28T08:45:10.673Z,1.85
2024-02-28T08:47:37.597Z,1.92
2024-02-28T08:50:05.898Z,2.40
2024-02-28T08:52:32.848Z,2.30
2024-02-28T08:54:59.824Z,2.03
2024-02-28T08:57:26.811Z,2.20
2024-02-28T08:59:54.220Z,2.40
2024-02-28T09:02:21.164Z,2.10
2024-02-28T09:04:51.988Z,1.95
2024-02-28T09:07:20.607Z,1.88
2024-02-28T09:09:47.599Z,1.88
2024-02-28T09:12:14.538Z,1.98
2024-02-28T09:14:41.872Z,1.85
2024-02-28T09:17:08.680Z,1.73
2024-02-28T09:19:35.559Z,1.88
2024-02-28T09:22:02.414Z,1.92
2024-02-28T09:24:29.343Z,2.00
2024-02-28T09:26:56.195Z,2.22
2024-02-28T09:29:23.054Z,1.88
2024-02-28T09:31:50.030Z,2.20
2024-02-28T09:34:16.975Z,2.08
2024-02-28T09:36:46.534Z,2.10
2024-02-28T09:39:16.020Z,2.60
2024-02-28T09:41:42.886Z,1.90
2024-02-28T09:44:09.817Z,1.80
2024-02-28T09:46:36.782Z,1.88
2024-02-28T09:49:05.303Z,1.60
2024-02-28T09:51:38.699Z,2.05
2024-02-28T09:54:06.664Z,1.42
2024-02-28T09:56:34.349Z,1.55
2024-02-28T09:59:04.440Z,1.50
2024-02-28T10:01:31.877Z,1.55
2024-02-28T10:04:00.732Z,1.92
2024-02-28T10:06:27.655Z,1.65
2024-02-28T10:08:54.505Z,1.92
2024-02-28T10:11:22.287Z,1.65
2024-02-28T10:13:49.362Z,2.03
2024-02-28T10:16:19.154Z,1.77
2024-02-28T10:18:46.490Z,2.00
2024-02-28T10:21:13.679Z,1.90
2024-02-28T10:23:40.843Z,2.28
2024-02-28T10:26:10.191Z,1.83
2024-02-28T10:28:40.968Z,1.88
2024-02-28T10:31:11.792Z,2.10
2024-02-28T10:33:38.909Z,1.83
2024-02-28T10:36:06.346Z,1.67
2024-02-28T10:38:39.879Z,1.48
2024-02-28T10:41:09.865Z,2.50
2024-02-28T10:46:25.315Z,1.40
2024-02-28T10:48:55.613Z,1.38
2024-02-28T10:51:25.390Z,1.80
2024-02-28T10:53:59.071Z,1.95
2024-02-28T10:56:28.365Z,1.70
2024-02-28T10:58:56.219Z,1.80
2024-02-28T11:01:23.516Z,1.98
2024-02-28T11:03:51.834Z,2.50
2024-02-28T11:06:20.076Z,2.40
2024-02-28T11:08:47.368Z,2.72
2024-02-28T11:11:15.143Z,2.35
2024-02-28T11:13:42.013Z,2.35
2024-02-28T11:16:10.016Z,2.47
2024-02-28T11:18:37.095Z,1.95
2024-02-28T11:21:05.182Z,2.42
2024-02-28T11:23:50.226Z,2.15
2024-02-28T11:26:17.208Z,2.20
2024-02-28T11:28:44.150Z,2.05
2024-02-28T11:31:11.039Z,2.63
2024-02-28T11:33:38.236Z,2.20
2024-02-28T11:36:06.126Z,2.50
2024-02-28T11:38:33.600Z,2.38
2024-02-28T11:41:00.672Z,2.60
2024-02-28T11:43:28.592Z,2.20
2024-02-28T11:45:57.554Z,2.42
2024-02-28T11:48:25.798Z,3.08
2024-02-28T11:50:52.750Z,2.85
2024-02-28T11:53:19.690Z,2.75
2024-02-28T11:55:50.063Z,2.92
2024-02-28T11:58:17.768Z,2.40
2024-02-28T12:00:50.875Z,2.63
2024-02-28T12:03:27.686Z,2.83
2024-02-28T12:05:56.292Z,2.88
2024-02-28T12:08:24.465Z,2.72
2024-02-28T12:10:53.030Z,2.30
2024-02-28T12:13:19.979Z,2.83
2024-02-28T12:15:47.034Z,2.42
2024-02-28T12:18:15.677Z,2.22
2024-02-28T12:20:42.579Z,1.92
2024-02-28T12:23:09.602Z,1.75
2024-02-28T12:25:37.336Z,1.70
2024-02-28T12:28:06.690Z,1.70
2024-02-28T12:30:40.500Z,1.77
2024-02-28T12:33:07.454Z,2.05
2024-02-28T12:35:34.377Z,1.67
2024-02-28T12:38:01.226Z,1.75
2024-02-28T12:40:28.115Z,1.58
2024-02-28T12:42:54.997Z,1.50
2024-02-28T12:45:25.852Z,1.58
2024-02-28T12:47:54.441Z,1.70
2024-02-28T12:50:22.997Z,1.42
2024-02-28T12:52:54.559Z,1.30
2024-02-28T12:55:22.736Z,1.80
2024-02-28T12:57:50.020Z,2.05
2024-02-28T13:00:17.181Z,1.40
2024-02-28T13:02:44.151Z,1.50
2024-02-28T13:05:12.140Z,1.38
2024-02-28T13:07:39.325Z,1.23
2024-02-28T13:10:07.073Z,1.95
2024-02-28T13:12:34.216Z,1.38
2024-02-28T13:15:01.173Z,1.38
2024-02-28T13:17:28.118Z,1.13
2024-02-28T13:19:55.006Z,1.50
2024-02-28T13:22:21.811Z,1.42
2024-02-28T13:24:48.673Z,1.50
2024-02-28T13:27:15.536Z,1.50
2024-02-28T13:29:42.388Z,1.33
2024-02-28T13:32:09.546Z,1.65
2024-02-28T13:34:36.421Z,1.30
2024-02-28T13:37:03.278Z,1.60
2024-02-28T13:39:31.066Z,1.50
2024-02-28T13:41:58.413Z,1.42
2024-02-28T13:44:25.276Z,1.38
2024-02-28T13:46:53.177Z,1.63
2024-02-28T13:49:20.638Z,1.60
2024-02-28T13:51:47.568Z,1.95
2024-02-28T13:54:14.436Z,1.70
2024-02-28T13:56:41.301Z,1.67
2024-02-28T13:59:08.308Z,1.65
2024-02-28T14:01:35.357Z,1.40
2024-02-28T14:04:02.334Z,1.60
2024-02-28T14:06:29.579Z,1.25
2024-02-28T14:08:56.441Z,1.45
2024-02-28T14:11:25.194Z,1.52
2024-02-28T14:13:52.332Z,1.52
2024-02-28T14:16:21.087Z,1.80
2024-02-28T14:18:48.131Z,1.65
2024-02-28T14:21:15.129Z,1.50
2024-02-28T14:23:42.559Z,1.20
2024-02-28T14:26:09.650Z,1.70
2024-02-28T14:28:36.505Z,1.77
2024-02-28T14:31:03.494Z,1.60
2024-02-28T14:33:30.491Z,1.92
2024-02-28T14:35:57.512Z,1.77
2024-02-28T14:38:24.325Z,1.10
2024-02-28T14:40:51.149Z,1.35
2024-02-28T14:43:18.628Z,1.20
2024-02-28T14:45:45.633Z,1.38
2024-02-28T14:48:12.436Z,2.05
2024-02-28T14:50:39.301Z,1.55
2024-02-28T14:53:06.456Z,1.70
2024-02-28T14:55:33.316Z,1.77
2024-02-28T14:58:01.641Z,2.10
2024-02-28T15:00:29.493Z,2.20
2024-02-28T15:02:56.450Z,1.75
2024-02-28T15:05:23.652Z,1.80
2024-02-28T15:07:50.580Z,2.00
2024-02-28T15:10:17.490Z,1.52
2024-02-28T15:12:46.491Z,2.00
2024-02-28T15:15:13.622Z,2.00
2024-02-28T15:17:40.650Z,1.60
2024-02-28T15:20:09.936Z,1.50
2024-02-28T15:22:36.857Z,1.70
2024-02-28T15:25:04.650Z,2.13
2024-02-28T15:27:31.745Z,1.33
2024-02-28T15:29:58.615Z,1.33
2024-02-28T15:32:25.570Z,1.25
2024-02-28T15:34:53.079Z,1.08
2024-02-28T15:37:20.043Z,1.38
2024-02-28T15:39:47.063Z,0.80
2024-02-28T15:42:14.301Z,1.00
2024-02-28T15:44:41.435Z,0.98
2024-02-28T15:47:10.128Z,0.90
2024-02-28T15:49:40.920Z,0.70
2024-02-28T15:54:37.841Z,1.10
2024-02-28T15:57:05.016Z,0.77
2024-02-28T15:59:31.910Z,0.90
2024-02-28T16:01:58.785Z,1.38
2024-02-28T16:04:25.709Z,0.90
2024-02-28T16:06:52.765Z,0.90
2024-02-28T16:09:19.611Z,0.80
2024-02-28T16:11:46.780Z,0.88
2024-02-28T16:14:14.652Z,0.70
2024-02-28T16:16:41.782Z,0.68
2024-02-28T16:19:15.628Z,0.55
2024-02-28T16:21:51.551Z,0.93
2024-02-28T16:24:18.595Z,1.08
2024-02-28T16:26:45.702Z,0.73
2024-02-28T16:29:13.067Z,0.80
2024-02-28T16:31:40.003Z,0.73
2024-02-28T16:34:06.897Z,0.63
2024-02-28T16:36:33.805Z,0.65
2024-02-28T16:39:00.636Z,0.88
2024-02-28T16:41:27.612Z,0.73
2024-02-28T16:43:56.480Z,0.80
2024-02-28T16:46:23.403Z,0.60
2024-02-28T16:48:50.307Z,0.60
2024-02-28T16:51:18.865Z,0.52
2024-02-28T16:53:45.963Z,0.35
2024-02-28T16:56:12.823Z,0.80
2024-02-28T16:58:43.585Z,0.80
2024-02-28T17:01:11.118Z,0.80
2024-02-28T17:03:38.312Z,1.00
2024-02-28T17:06:06.108Z,0.80
2024-02-28T17:08:36.281Z,1.00
2024-02-28T17:11:03.837Z,1.00
2024-02-28T17:13:30.735Z,0.80
2024-02-28T17:16:03.731Z,1.13
2024-02-28T17:18:31.596Z,0.88
2024-02-28T17:20:59.042Z,1.00
2024-02-28T17:23:26.718Z,1.05
2024-02-28T17:25:54.205Z,1.30
2024-02-28T17:28:21.410Z,1.50
2024-02-28T17:30:48.404Z,1.15
2024-02-28T17:33:15.538Z,1.08
2024-02-28T17:35:43.015Z,0.95
2024-02-28T17:38:09.985Z,1.33
2024-02-28T17:40:36.854Z,1.35
2024-02-28T17:43:05.478Z,1.30
2024-02-28T17:45:32.546Z,1.10
2024-02-28T17:47:59.628Z,1.27
2024-02-28T17:50:26.607Z,1.20
2024-02-28T17:52:53.617Z,1.50
2024-02-28T17:55:21.655Z,1.13
2024-02-28T17:57:51.609Z,1.23
2024-02-28T18:00:23.096Z,1.30
2024-02-28T18:05:17.085Z,1.20
2024-02-28T18:07:44.086Z,1.52
2024-02-28T18:10:14.169Z,1.25
2024-02-28T18:12:41.316Z,1.30
2024-02-28T18:15:08.383Z,1.13
2024-02-28T18:17:35.665Z,1.13
2024-02-28T18:20:06.340Z,1.20
2024-02-28T18:22:33.267Z,1.05
2024-02-28T18:25:01.319Z,0.90
2024-02-28T18:27:28.385Z,1.35
2024-02-28T18:29:55.765Z,1.17
2024-02-28T18:32:22.574Z,1.00
2024-02-28T18:34:52.846Z,1.20
2024-02-28T18:37:20.197Z,0.90
2024-02-28T18:39:47.196Z,0.80
2024-02-28T18:42:14.148Z,0.90
2024-02-28T18:44:41.053Z,0.80
2024-02-28T18:47:08.041Z,0.90
2024-02-28T18:49:35.077Z,1.35
2024-02-28T18:52:02.142Z,1.00
2024-02-28T18:54:29.404Z,1.00
2024-02-28T18:56:56.408Z,1.02
2024-02-28T18:59:23.349Z,0.90
2024-02-28T19:01:53.661Z,1.15
2024-02-28T19:04:20.609Z,1.00
2024-02-28T19:06:48.569Z,1.00
2024-02-28T19:09:15.554Z,1.20
2024-02-28T19:11:42.664Z,1.40
2024-02-28T19:14:09.671Z,1.40
2024-02-28T19:16:36.568Z,1.35
2024-02-28T19:19:03.596Z,1.00
2024-02-28T19:21:31.358Z,1.60
2024-02-28T19:23:58.787Z,1.15
2024-02-28T19:26:25.647Z,1.30
2024-02-28T19:28:52.579Z,1.58
2024-02-28T19:31:19.533Z,1.60
2024-02-28T19:33:46.496Z,1.60
2024-02-28T19:36:13.625Z,1.50
2024-02-28T19:38:40.535Z,1.85
2024-02-28T19:41:08.334Z,1.33
2024-02-28T19:43:35.549Z,1.77
2024-02-28T19:46:04.126Z,1.60
2024-02-28T19:48:31.103Z,1.20
2024-02-28T19:50:58.032Z,1.33
2024-02-28T19:53:25.205Z,1.77
2024-02-28T19:55:52.190Z,1.48
2024-02-28T19:58:19.129Z,1.25
2024-02-28T20:00:46.116Z,1.27
2024-02-28T20:03:13.024Z,1.20
2024-02-28T20:05:41.103Z,1.30
2024-02-28T20:08:08.537Z,1.23
2024-02-28T20:10:36.516Z,1.17
2024-02-28T20:13:03.842Z,1.20
2024-02-28T20:15:30.914Z,1.00
2024-02-28T20:17:57.902Z,1.17
2024-02-28T20:20:24.928Z,1.20
2024-02-28T20:22:51.849Z,1.25
2024-02-28T20:25:18.841Z,1.50
2024-02-28T20:27:46.862Z,1.30
2024-02-28T20:30:13.839Z,1.38
2024-02-28T20:32:40.701Z,2.30
2024-02-28T20:35:08.810Z,1.70
2024-02-28T20:37:35.760Z,1.48
2024-02-28T20:40:05.246Z,1.40
2024-02-28T20:42:33.211Z,2.25
2024-02-28T20:45:00.222Z,1.90
2024-02-28T20:47:27.135Z,1.75
2024-02-28T20:49:54.068Z,2.55
2024-02-28T20:52:20.900Z,2.17
2024-02-28T20:54:47.790Z,2.30
2024-02-28T20:57:17.214Z,2.60
2024-02-28T20:59:44.469Z,2.72
2024-02-28T21:02:11.609Z,1.92
2024-02-28T21:04:40.189Z,2.40
2024-02-28T21:07:07.175Z,2.22
2024-02-28T21:09:36.795Z,2.33
2024-02-28T21:12:04.116Z,2.15
2024-02-28T21:14:31.141Z,2.13
2024-02-28T21:16:58.955Z,2.10
2024-02-28T21:19:26.781Z,1.83
2024-02-28T21:21:54.107Z,1.70
2024-02-28T21:24:21.213Z,1.80
2024-02-28T21:26:48.120Z,1.55
2024-02-28T21:29:14.958Z,1.95
2024-02-28T21:31:41.835Z,1.60
2024-02-28T21:34:08.917Z,1.40
2024-02-28T21:36:35.920Z,1.85
2024-02-28T21:39:03.266Z,1.50
2024-02-28T21:41:30.179Z,1.45
2024-02-28T21:43:59.978Z,1.90
2024-02-28T21:46:28.588Z,1.55
2024-02-28T21:49:02.746Z,1.50
2024-02-28T21:54:00.624Z,1.52
2024-02-28T21:56:27.616Z,1.65
2024-02-28T21:58:54.473Z,1.67
2024-02-28T22:01:21.541Z,1.80
2024-02-28T22:03:48.588Z,1.70
2024-02-28T22:06:15.743Z,1.60
2024-02-28T22:08:42.617Z,1.60
2024-02-28T22:11:09.626Z,1.45
2024-02-28T22:13:36.791Z,1.80
2024-02-28T22:16:04.232Z,1.80
2024-02-28T22:18:32.585Z,1.92
2024-02-28T22:20:59.444Z,2.05
2024-02-28T22:23:26.334Z,1.80
2024-02-28T22:25:53.145Z,1.63
2024-02-28T22:28:20.120Z,1.90
2024-02-28T22:30:47.052Z,1.90
2024-02-28T22:33:14.069Z,1.70
2024-02-28T22:35:41.338Z,1.50
2024-02-28T22:38:08.321Z,1.70
2024-02-28T22:40:35.654Z,1.50
2024-02-28T22:43:02.736Z,1.90
2024-02-28T22:45:29.828Z,1.60
2024-02-28T22:47:56.741Z,1.75
2024-02-28T22:50:23.697Z,1.50
2024-02-28T22:52:50.890Z,1.25
2024-02-28T22:55:21.144Z,1.33
2024-02-28T22:57:48.595Z,1.20
2024-02-28T23:00:31.647Z,1.50
2024-02-28T23:03:07.613Z,1.20
2024-02-28T23:05:36.233Z,1.35
2024-02-28T23:08:03.802Z,1.30
2024-02-28T23:10:30.766Z,1.38
2024-02-28T23:12:58.739Z,1.50
2024-02-28T23:15:25.952Z,1.30
2024-02-28T23:17:53.094Z,1.23
2024-02-28T23:20:27.992Z,1.98
2024-02-28T23:22:55.470Z,1.50
2024-02-28T23:25:22.936Z,1.50
2024-02-28T23:27:51.048Z,1.90
2024-02-28T23:30:18.030Z,1.95
2024-02-28T23:32:44.953Z,1.83
2024-02-28T23:35:11.906Z,1.90
2024-02-28T23:37:39.777Z,1.95
2024-02-28T23:40:07.772Z,2.10
2024-02-28T23:42:35.197Z,2.00
2024-02-28T23:45:02.491Z,2.50
2024-02-28T23:47:29.324Z,2.72
2024-02-28T23:49:56.656Z,2.60
2024-02-28T23:52:23.570Z,2.55
2024-02-28T23:54:50.895Z,2.80
2024-02-28T23:57:18.003Z,2.80
2024-02-28T23:59:44.917Z,2.35
